Time;durP1;ratioP1;P1;durP2;ratioP2;P2;SDS_P1;SDS_P2;PMS_P1;PMS_P2;Temp;Humidity;BMP_temperature;BMP_pressure;BME280_temperature;BME280_humidity;BME280_pressure;Samples;Min_cycle;Max_cycle;Signal;HPM_P1;HPM_P2
2023/10/05 00:03:47;;;;;;;6.50;1.17;;;12.90;1.00;;;;;;5045755;28;20067;-75
2023/10/05 00:06:17;;;;;;;6.07;1.10;;;12.90;1.00;;;;;;5056973;28;20042;-75
2023/10/05 00:08:49;;;;;;;5.70;1.40;;;12.90;1.00;;;;;;5045578;28;20045;-75
2023/10/05 00:11:28;;;;;;;4.70;1.50;;;12.90;1.00;;;;;;5028007;28;20072;-75
2023/10/05 00:13:59;;;;;;;7.22;1.50;;;12.90;1.00;;;;;;5045821;28;20450;-75
2023/10/05 00:16:36;;;;;;;5.13;1.10;;;12.90;1.00;;;;;;5064398;28;20033;-75
2023/10/05 00:19:09;;;;;;;4.95;1.50;;;12.90;1.00;;;;;;5054005;28;20044;-75
2023/10/05 00:21:35;;;;;;;8.35;1.38;;;13.00;1.00;;;;;;5059345;28;20037;-75
2023/10/05 00:24:06;;;;;;;6.20;1.33;;;13.00;1.00;;;;;;5045189;28;20036;-75
2023/10/05 00:26:36;;;;;;;7.43;1.50;;;13.10;1.00;;;;;;5061973;28;20044;-75
2023/10/05 00:31:47;;;;;;;10.18;2.20;;;13.10;1.00;;;;;;5041289;28;20048;-74
2023/10/05 00:34:27;;;;;;;6.68;1.55;;;13.00;1.00;;;;;;5045518;28;20087;-75
2023/10/05 00:36:57;;;;;;;6.68;1.58;;;13.10;1.00;;;;;;5056646;28;20456;-75
2023/10/05 00:39:24;;;;;;;4.75;1.20;;;13.10;1.00;;;;;;5028077;28;20037;-74
2023/10/05 00:44:36;;;;;;;8.20;1.88;;;13.20;1.00;;;;;;5042950;28;20174;-75
2023/10/05 00:47:06;;;;;;;7.47;2.45;;;13.10;1.00;;;;;;5037934;28;20150;-75
2023/10/05 00:49:45;;;;;;;6.50;1.23;;;13.20;1.00;;;;;;5030201;28;20048;-74
2023/10/05 00:52:15;;;;;;;7.28;1.30;;;13.20;1.00;;;;;;5028584;28;20178;-74
2023/10/05 00:54:50;;;;;;;5.30;1.60;;;13.20;1.00;;;;;;5030292;28;20136;-74
2023/10/05 00:57:22;;;;;;;5.35;1.23;;;13.20;1.00;;;;;;5045882;28;20059;-74
2023/10/05 00:59:58;;;;;;;4.20;1.17;;;13.20;1.00;;;;;;5052380;28;20116;-74
2023/10/05 01:02:26;;;;;;;5.97;1.20;;;13.30;1.00;;;;;;5063433;28;20068;-74
2023/10/05 01:05:01;;;;;;;5.30;1.95;;;13.40;1.00;;;;;;5047540;28;20056;-73
2023/10/05 01:12:39;;;;;;;5.75;1.70;;;13.30;1.00;;;;;;5040909;28;20068;-74
2023/10/05 01:15:09;;;;;;;6.88;1.55;;;13.30;1.00;;;;;;5035022;28;20037;-74
2023/10/05 01:17:36;;;;;;;8.02;1.50;;;13.30;1.00;;;;;;5059801;28;20499;-74
2023/10/05 01:20:11;;;;;;;8.77;1.92;;;13.30;1.00;;;;;;5047209;28;20515;-74
2023/10/05 01:22:40;;;;;;;3.55;1.15;;;13.30;1.00;;;;;;5056842;28;20045;-74
2023/10/05 01:25:13;;;;;;;6.68;1.23;;;13.30;1.00;;;;;;5026853;28;20041;-74
2023/10/05 01:27:41;;;;;;;7.18;1.15;;;13.30;1.00;;;;;;5042691;28;20037;-74
2023/10/05 01:30:13;;;;;;;4.00;1.23;;;13.20;1.00;;;;;;5049430;28;20114;-74
2023/10/05 01:32:47;;;;;;;4.72;1.55;;;13.20;1.00;;;;;;5033317;28;20065;-74
2023/10/05 01:35:14;;;;;;;10.18;1.70;;;13.10;1.00;;;;;;5026127;28;20041;-75
2023/10/05 01:37:41;;;;;;;6.35;1.40;;;13.10;1.00;;;;;;5048261;28;20075;-74
2023/10/05 01:42:47;;;;;;;3.58;1.23;;;13.10;1.00;;;;;;5042164;28;20045;-75
2023/10/05 01:45:15;;;;;;;3.10;1.40;;;13.10;1.00;;;;;;5048670;28;20044;-74
2023/10/05 01:47:44;;;;;;;3.25;1.20;;;13.10;1.00;;;;;;5048501;28;20569;-74
2023/10/05 01:50:18;;;;;;;10.18;1.75;;;13.10;1.00;;;;;;5050238;28;20044;-75
2023/10/05 01:52:55;;;;;;;3.28;1.25;;;13.10;1.00;;;;;;5048056;28;20499;-75
2023/10/05 01:55:24;;;;;;;4.78;1.55;;;13.00;1.00;;;;;;5044516;28;20040;-75
2023/10/05 01:57:50;;;;;;;5.20;1.30;;;13.00;1.00;;;;;;5027140;28;20037;-75
2023/10/05 02:00:17;;;;;;;4.40;1.25;;;13.00;1.00;;;;;;5048903;28;20046;-75
2023/10/05 02:02:48;;;;;;;6.00;1.40;;;13.00;1.00;;;;;;5035028;28;20037;-75
2023/10/05 02:05:14;;;;;;;3.83;1.23;;;13.10;1.00;;;;;;5037833;28;20473;-75
2023/10/05 02:07:40;;;;;;;3.80;1.30;;;13.00;1.00;;;;;;5047747;28;20446;-75
2023/10/05 02:10:10;;;;;;;6.95;1.58;;;13.00;1.00;;;;;;5033078;28;20036;-75
2023/10/05 02:12:36;;;;;;;5.70;1.27;;;13.00;1.00;;;;;;5048814;28;20072;-75
2023/10/05 02:15:15;;;;;;;6.00;1.30;;;13.10;1.00;;;;;;5039274;28;20044;-75
2023/10/05 02:17:45;;;;;;;2.60;1.13;;;13.00;1.00;;;;;;5064315;28;20067;-75
2023/10/05 02:20:25;;;;;;;7.05;1.38;;;13.00;1.00;;;;;;5032616;28;20043;-75
2023/10/05 02:22:51;;;;;;;4.80;1.25;;;13.00;1.00;;;;;;5047725;28;20065;-75
2023/10/05 02:25:22;;;;;;;4.20;1.52;;;13.00;1.00;;;;;;5032228;28;20080;-74
2023/10/05 02:27:48;;;;;;;6.32;1.52;;;13.00;1.00;;;;;;5052734;28;20036;-75
2023/10/05 02:30:14;;;;;;;7.88;1.55;;;13.00;4.60;;;;;;5040687;28;20053;-75
2023/10/05 02:32:44;;;;;;;5.47;1.50;;;13.00;1.00;;;;;;5047299;28;20044;-75
2023/10/05 02:35:24;;;;;;;8.55;1.42;;;13.10;10.60;;;;;;5048109;28;20049;-75
2023/10/05 02:37:52;;;;;;;5.57;1.30;;;13.10;10.30;;;;;;5032962;28;20040;-75
2023/10/05 02:40:19;;;;;;;5.22;1.50;;;13.20;1.00;;;;;;5047277;28;20041;-74
2023/10/05 02:42:47;;;;;;;6.28;1.50;;;13.20;1.00;;;;;;5049527;28;20075;-75
2023/10/05 02:45:17;;;;;;;9.32;1.63;;;13.20;1.00;;;;;;5031205;28;20106;-75
2023/10/05 02:47:43;;;;;;;7.32;1.27;;;13.20;1.00;;;;;;5046898;28;20037;-75
2023/10/05 02:50:09;;;;;;;4.55;1.25;;;13.30;1.00;;;;;;5037734;28;20120;-75
2023/10/05 02:52:36;;;;;;;6.63;1.60;;;13.30;1.00;;;;;;5048119;28;20045;-75
2023/10/05 02:55:06;;;;;;;8.75;2.15;;;13.40;1.00;;;;;;5031421;28;20053;-75
2023/10/05 02:57:31;;;;;;;9.73;1.73;;;13.40;1.00;;;;;;5059901;28;20053;-75
2023/10/05 02:59:59;;;;;;;6.45;1.60;;;13.40;1.00;;;;;;5036719;28;20082;-75
2023/10/05 03:02:25;;;;;;;7.30;1.50;;;13.40;1.00;;;;;;5036624;28;20037;-75
2023/10/05 03:05:02;;;;;;;5.03;1.30;;;13.40;1.00;;;;;;5042068;28;20075;-75
2023/10/05 03:07:28;;;;;;;6.05;1.35;;;13.50;1.00;;;;;;5057532;28;20033;-75
2023/10/05 03:09:59;;;;;;;6.82;1.58;;;13.40;1.00;;;;;;5032686;28;20040;-75
2023/10/05 03:12:25;;;;;;;7.40;1.25;;;13.20;1.00;;;;;;5044096;28;20047;-75
2023/10/05 03:14:52;;;;;;;8.95;1.50;;;13.30;1.00;;;;;;5029284;28;20038;-75
2023/10/05 03:17:21;;;;;;;8.88;1.77;;;13.10;1.00;;;;;;5047035;28;20154;-75
2023/10/05 03:19:50;;;;;;;7.10;1.63;;;13.10;1.00;;;;;;5046363;28;20072;-75
2023/10/05 03:22:16;;;;;;;8.00;1.83;;;13.00;1.00;;;;;;5029508;28;20217;-75
2023/10/05 03:24:47;;;;;;;7.22;1.50;;;13.00;10.60;;;;;;5043510;28;20107;-75
2023/10/05 03:27:21;;;;;;;8.10;1.40;;;13.00;1.00;;;;;;5050737;28;20143;-75
2023/10/05 03:29:47;;;;;;;7.05;1.70;;;13.00;1.00;;;;;;5055401;28;20049;-74
2023/10/05 03:32:19;;;;;;;5.35;1.20;;;13.00;1.00;;;;;;5042891;28;20435;-74
2023/10/05 03:34:55;;;;;;;6.40;1.27;;;12.90;1.00;;;;;;5047131;28;20123;-74
2023/10/05 03:37:22;;;;;;;6.30;1.95;;;13.00;1.00;;;;;;5024188;28;20037;-74
2023/10/05 03:39:56;;;;;;;6.28;1.77;;;13.00;1.60;;;;;;5044918;28;20549;-75
2023/10/05 03:42:22;;;;;;;7.68;1.55;;;12.90;4.50;;;;;;5030298;28;20140;-74
2023/10/05 03:45:04;;;;;;;6.10;1.70;;;12.90;4.80;;;;;;5027878;28;20660;-74
2023/10/05 03:47:39;;;;;;;5.53;1.20;;;12.90;5.40;;;;;;5054965;28;20032;-74
2023/10/05 03:50:06;;;;;;;8.00;1.67;;;12.90;8.70;;;;;;5042934;28;20032;-74
2023/10/05 03:52:35;;;;;;;7.25;1.30;;;13.00;1.00;;;;;;5046434;28;20060;-74
2023/10/05 03:55:09;;;;;;;5.30;1.58;;;13.00;1.00;;;;;;5029252;28;20037;-73
2023/10/05 03:57:35;;;;;;;7.95;1.35;;;13.00;1.00;;;;;;5030537;28;20079;-75
2023/10/05 04:00:16;;;;;;;5.13;1.10;;;13.00;1.00;;;;;;5033708;28;20048;-74
2023/10/05 04:02:43;;;;;;;6.68;1.75;;;13.10;1.00;;;;;;5046487;28;20399;-74
2023/10/05 04:05:10;;;;;;;5.03;1.50;;;13.00;1.00;;;;;;5028234;28;20035;-74
2023/10/05 04:07:37;;;;;;;10.98;1.55;;;13.00;1.00;;;;;;5041359;28;20045;-74
2023/10/05 04:10:07;;;;;;;6.75;1.52;;;13.00;1.00;;;;;;5046663;28;20080;-74
2023/10/05 04:12:34;;;;;;;10.52;2.08;;;13.00;1.00;;;;;;5046780;28;20075;-74
2023/10/05 04:15:00;;;;;;;8.45;1.60;;;13.00;1.00;;;;;;5027680;28;20045;-74
2023/10/05 04:17:27;;;;;;;4.82;1.23;;;13.00;4.50;;;;;;5060791;28;20116;-74
2023/10/05 04:19:53;;;;;;;5.28;1.35;;;13.00;9.90;;;;;;5059177;28;20045;-74
2023/10/05 04:22:18;;;;;;;6.50;2.10;;;13.00;7.50;;;;;;5028974;28;20044;-75
2023/10/05 04:24:47;;;;;;;4.47;1.15;;;13.10;1.00;;;;;;5030238;28;20036;-74
2023/10/05 04:27:13;;;;;;;9.82;1.65;;;13.10;1.00;;;;;;5030272;28;20072;-74
2023/10/05 04:29:38;;;;;;;8.30;2.28;;;13.10;4.90;;;;;;5048910;28;20033;-74
2023/10/05 04:32:06;;;;;;;6.93;1.77;;;13.20;1.00;;;;;;5048438;28;20068;-74
2023/10/05 04:34:32;;;;;;;5.28;1.77;;;13.20;1.00;;;;;;5029910;28;20039;-74
2023/10/05 04:36:58;;;;;;;5.95;1.50;;;13.20;1.00;;;;;;5045399;28;20053;-74
2023/10/05 04:39:32;;;;;;;5.57;1.90;;;13.20;1.00;;;;;;5046758;28;20036;-75
2023/10/05 04:42:11;;;;;;;7.20;1.38;;;13.10;1.00;;;;;;5041305;28;20076;-74
2023/10/05 04:44:37;;;;;;;6.13;2.15;;;13.10;1.00;;;;;;5027007;28;20116;-75
2023/10/05 04:47:04;;;;;;;5.65;1.50;;;13.20;1.00;;;;;;5026275;28;20032;-74
2023/10/05 04:49:35;;;;;;;4.13;1.10;;;13.20;1.00;;;;;;5035521;28;20094;-75
2023/10/05 04:52:04;;;;;;;6.55;1.55;;;13.20;1.00;;;;;;5032876;28;20053;-74
2023/10/05 04:54:34;;;;;;;7.28;1.73;;;13.20;1.00;;;;;;5049534;28;20056;-74
2023/10/05 04:57:07;;;;;;;4.88;1.38;;;13.20;1.00;;;;;;5031285;28;20076;-74
2023/10/05 05:02:47;;;;;;;4.78;1.08;;;13.20;1.00;;;;;;5051154;28;20081;-74
2023/10/05 05:05:32;;;;;;;8.95;1.42;;;13.30;1.00;;;;;;5038178;28;20037;-74
2023/10/05 05:07:58;;;;;;;10.30;2.83;;;13.20;1.00;;;;;;5052992;28;20041;-74
2023/10/05 05:10:24;;;;;;;7.65;1.52;;;13.30;1.00;;;;;;5042114;28;20694;-74
2023/10/05 05:12:49;;;;;;;4.85;1.55;;;13.30;1.00;;;;;;5051454;28;20052;-74
2023/10/05 05:15:15;;;;;;;7.30;1.48;;;13.30;1.00;;;;;;5058991;28;20036;-74
2023/10/05 05:17:42;;;;;;;5.00;1.40;;;13.30;1.00;;;;;;5032683;28;20132;-74
2023/10/05 05:20:11;;;;;;;7.45;1.52;;;13.30;1.00;;;;;;5049426;28;20411;-75
2023/10/05 05:22:39;;;;;;;8.70;2.03;;;13.30;1.00;;;;;;5045641;28;20116;-74
2023/10/05 05:25:06;;;;;;;7.32;1.80;;;13.30;1.00;;;;;;5050104;28;20048;-75
2023/10/05 05:27:33;;;;;;;4.88;1.52;;;13.20;1.00;;;;;;5050001;28;20520;-75
2023/10/05 05:29:59;;;;;;;6.05;1.30;;;13.00;1.00;;;;;;5032543;28;20491;-75
2023/10/05 05:32:24;;;;;;;6.53;1.80;;;13.10;1.00;;;;;;5029053;28;20067;-75
2023/10/05 05:34:50;;;;;;;7.20;1.52;;;13.00;4.10;;;;;;5028181;28;20041;-75
2023/10/05 05:37:28;;;;;;;8.23;1.58;;;12.80;1.00;;;;;;5047763;28;20049;-75
2023/10/05 05:40:11;;;;;;;8.20;1.73;;;12.80;3.60;;;;;;5044939;28;20079;-75
2023/10/05 05:42:36;;;;;;;7.30;2.55;;;12.70;14.70;;;;;;5039646;28;20711;-75
2023/10/05 05:45:10;;;;;;;8.07;1.52;;;12.80;33.70;;;;;;5031963;28;20070;-75
2023/10/05 05:47:35;;;;;;;10.65;2.67;;;12.90;39.10;;;;;;5033038;28;20040;-75
2023/10/05 05:50:03;;;;;;;9.05;1.80;;;12.90;35.10;;;;;;5022505;28;20079;-75
2023/10/05 05:52:28;;;;;;;8.60;1.90;;;12.90;36.60;;;;;;5026605;28;20067;-75
2023/10/05 05:54:54;;;;;;;8.43;1.50;;;12.90;34.70;;;;;;5026755;28;20037;-75
2023/10/05 05:57:20;;;;;;;6.30;2.03;;;12.90;35.60;;;;;;5032978;28;20517;-75
2023/10/05 05:59:46;;;;;;;8.52;1.55;;;13.00;44.20;;;;;;5047965;28;20037;-76
2023/10/05 06:02:12;;;;;;;10.95;1.98;;;13.10;42.40;;;;;;5055282;28;20069;-76
2023/10/05 06:04:41;;;;;;;6.50;1.75;;;13.10;33.80;;;;;;5045384;28;20065;-76
2023/10/05 06:07:11;;;;;;;7.10;1.92;;;13.10;27.60;;;;;;5030120;28;20051;-80
2023/10/05 06:09:40;;;;;;;5.93;1.58;;;13.20;25.90;;;;;;5048223;28;20622;-80
2023/10/05 06:12:05;;;;;;;5.43;1.83;;;13.20;25.80;;;;;;5047378;28;20117;-80
2023/10/05 06:14:34;;;;;;;6.45;1.42;;;13.30;25.40;;;;;;5045516;28;20075;-80
2023/10/05 06:17:00;;;;;;;9.48;1.80;;;13.40;22.80;;;;;;5049457;28;20040;-80
2023/10/05 06:19:27;;;;;;;5.93;1.55;;;13.50;17.30;;;;;;5031982;28;20712;-79
2023/10/05 06:21:53;;;;;;;5.28;1.35;;;13.50;12.10;;;;;;5030102;28;20037;-80
2023/10/05 06:24:18;;;;;;;5.32;1.45;;;13.50;15.40;;;;;;5056726;28;20057;-79
2023/10/05 06:26:45;;;;;;;7.50;1.65;;;13.60;18.00;;;;;;5032023;28;20116;-79
2023/10/05 06:29:13;;;;;;;10.93;2.08;;;13.70;13.70;;;;;;5045826;28;21677;-80
2023/10/05 06:31:40;;;;;;;8.75;2.40;;;13.80;8.50;;;;;;5027647;28;20492;-79
2023/10/05 06:34:09;;;;;;;9.23;1.60;;;13.80;4.10;;;;;;5048999;28;20465;-79
2023/10/05 06:36:39;;;;;;;8.63;1.60;;;13.80;4.50;;;;;;5035608;28;20466;-79
2023/10/05 06:39:14;;;;;;;12.25;1.85;;;13.90;5.10;;;;;;5045714;28;20052;-80
2023/10/05 06:41:43;;;;;;;15.82;2.45;;;13.90;6.00;;;;;;5042158;28;20041;-80
2023/10/05 06:44:10;;;;;;;6.05;1.67;;;13.90;5.60;;;;;;5046663;28;20116;-80
2023/10/05 06:46:37;;;;;;;6.10;1.50;;;13.90;3.40;;;;;;5030703;28;20843;-80
2023/10/05 06:49:05;;;;;;;5.65;1.60;;;13.90;1.00;;;;;;5030940;28;20033;-80
2023/10/05 06:51:31;;;;;;;7.03;1.98;;;13.80;6.10;;;;;;5044247;28;20049;-80
2023/10/05 06:53:57;;;;;;;7.90;1.90;;;13.80;11.30;;;;;;5043588;28;20052;-80
2023/10/05 06:56:24;;;;;;;9.00;1.60;;;13.80;19.90;;;;;;5030982;28;20041;-79
2023/10/05 06:58:50;;;;;;;8.27;1.75;;;13.80;27.70;;;;;;5034154;28;20044;-80
2023/10/05 07:01:20;;;;;;;8.60;1.80;;;13.80;28.30;;;;;;5045407;28;20354;-80
2023/10/05 07:03:52;;;;;;;9.43;1.70;;;13.90;27.70;;;;;;5026091;28;20765;-79
2023/10/05 07:06:19;;;;;;;13.55;2.00;;;13.90;33.10;;;;;;5027286;28;20119;-80
2023/10/05 07:08:46;;;;;;;6.57;1.80;;;14.00;38.40;;;;;;5039452;28;20041;-80
2023/10/05 07:11:11;;;;;;;7.53;1.70;;;14.00;36.60;;;;;;5046636;28;20041;-79
2023/10/05 07:13:37;;;;;;;12.70;2.50;;;14.10;35.50;;;;;;5029645;28;20391;-80
2023/10/05 07:16:05;;;;;;;7.72;1.80;;;14.20;24.70;;;;;;5020526;28;20061;-79
2023/10/05 07:18:31;;;;;;;7.18;2.33;;;14.20;23.80;;;;;;5055053;28;20246;-80
2023/10/05 07:20:57;;;;;;;6.50;1.65;;;14.40;18.80;;;;;;5062409;28;20107;-80
2023/10/05 07:23:23;;;;;;;6.53;1.63;;;14.40;16.10;;;;;;5030253;28;20075;-80
2023/10/05 07:25:49;;;;;;;7.68;2.00;;;14.60;12.70;;;;;;5025913;28;20118;-81
2023/10/05 07:28:18;;;;;;;8.60;1.80;;;14.70;2.40;;;;;;5047157;28;20501;-80
2023/10/05 07:30:48;;;;;;;7.13;1.73;;;14.80;1.00;;;;;;5031574;28;20479;-80
2023/10/05 07:33:14;;;;;;;6.43;2.00;;;14.80;1.00;;;;;;5029769;28;20053;-80
2023/10/05 07:35:43;;;;;;;8.40;1.67;;;14.90;1.00;;;;;;5048761;28;20051;-80
2023/10/05 07:38:11;;;;;;;6.50;2.05;;;14.90;1.00;;;;;;5031871;28;20037;-81
2023/10/05 07:40:37;;;;;;;7.70;1.50;;;15.00;1.00;;;;;;5030814;28;20045;-81
2023/10/05 07:43:06;;;;;;;5.65;1.65;;;15.10;1.00;;;;;;5035076;28;20126;-80
2023/10/05 07:45:33;;;;;;;5.30;1.42;;;15.20;1.00;;;;;;5038354;28;20456;-80
2023/10/05 07:47:59;;;;;;;7.57;1.80;;;15.20;1.00;;;;;;5052295;28;20395;-80
2023/10/05 07:50:28;;;;;;;9.10;2.03;;;15.20;1.00;;;;;;5038098;28;20402;-80
2023/10/05 07:52:58;;;;;;;7.05;1.65;;;15.30;1.00;;;;;;5034041;28;20052;-80
2023/10/05 07:55:24;;;;;;;9.20;2.33;;;15.40;1.00;;;;;;5028362;28;20132;-81
2023/10/05 07:57:53;;;;;;;5.70;1.52;;;15.50;1.00;;;;;;5028257;28;20060;-79
2023/10/05 08:00:20;;;;;;;7.90;2.08;;;15.60;1.00;;;;;;5037898;28;20128;-80
2023/10/05 08:02:46;;;;;;;8.88;1.90;;;15.60;1.00;;;;;;5029748;28;20123;-80
2023/10/05 08:05:12;;;;;;;12.23;1.85;;;15.70;1.00;;;;;;5046615;28;20395;-80
2023/10/05 08:07:39;;;;;;;6.60;2.28;;;15.70;1.00;;;;;;5029773;28;20048;-81
2023/10/05 08:10:15;;;;;;;7.97;1.40;;;15.80;1.00;;;;;;5047056;28;20047;-81
2023/10/05 08:12:43;;;;;;;5.57;1.65;;;15.80;1.00;;;;;;5046350;28;20566;-80
2023/10/05 08:15:13;;;;;;;11.88;2.08;;;15.90;1.00;;;;;;5028117;28;20049;-80
2023/10/05 08:17:39;;;;;;;7.95;1.85;;;15.90;1.00;;;;;;5042837;28;20124;-80
2023/10/05 08:20:06;;;;;;;6.40;1.80;;;15.90;1.00;;;;;;5022121;28;20044;-80
2023/10/05 08:22:32;;;;;;;11.80;2.58;;;16.00;1.00;;;;;;5020483;28;20087;-80
2023/10/05 08:25:00;;;;;;;9.02;2.00;;;16.00;1.00;;;;;;5027232;28;20033;-80
2023/10/05 08:27:26;;;;;;;9.73;2.22;;;16.00;1.00;;;;;;5029123;28;20082;-80
2023/10/05 08:29:52;;;;;;;4.75;1.60;;;16.00;1.00;;;;;;5041202;28;20526;-81
2023/10/05 08:32:24;;;;;;;6.60;2.63;;;15.90;1.00;;;;;;5041729;28;20047;-80
2023/10/05 08:34:50;;;;;;;10.50;1.70;;;15.80;1.00;;;;;;5028118;28;20116;-80
2023/10/05 08:37:19;;;;;;;8.85;2.40;;;15.60;1.00;;;;;;5039324;28;20048;-80
2023/10/05 08:39:46;;;;;;;6.90;2.15;;;15.50;1.00;;;;;;5024043;28;20090;-80
2023/10/05 08:42:14;;;;;;;10.10;1.92;;;15.40;1.00;;;;;;5026943;28;20039;-80
2023/10/05 08:44:41;;;;;;;6.43;2.05;;;15.50;1.00;;;;;;5035217;28;20099;-80
2023/10/05 08:47:12;;;;;;;9.63;2.03;;;15.50;1.00;;;;;;5042718;28;20041;-81
2023/10/05 08:49:38;;;;;;;9.10;1.70;;;15.40;1.00;;;;;;5038121;28;20132;-80
2023/10/05 08:52:15;;;;;;;9.40;1.83;;;15.40;1.00;;;;;;5038491;28;20092;-80
2023/10/05 08:54:45;;;;;;;12.15;2.50;;;15.30;1.00;;;;;;5027609;28;20041;-80
2023/10/05 08:57:11;;;;;;;12.75;2.45;;;15.20;1.00;;;;;;5047392;28;20522;-80
2023/10/05 08:59:39;;;;;;;8.90;2.05;;;15.10;1.00;;;;;;5026895;28;20423;-80
2023/10/05 09:02:08;;;;;;;7.57;2.45;;;15.00;13.90;;;;;;5042839;28;20522;-80
2023/10/05 09:04:43;;;;;;;6.47;2.00;;;15.00;32.30;;;;;;5042798;28;20120;-80
2023/10/05 09:07:27;;;;;;;11.70;2.30;;;15.10;77.30;;;;;;5025951;28;20045;-80
2023/10/05 09:09:54;;;;;;;7.47;2.05;;;15.20;90.80;;;;;;5027264;28;20412;-80
2023/10/05 09:12:42;;;;;;;10.93;1.77;;;15.20;93.60;;;;;;5039559;28;20041;-80
2023/10/05 09:15:22;;;;;;;12.27;3.05;;;15.20;87.40;;;;;;5029411;28;20545;-79
2023/10/05 09:20:33;;;;;;;8.10;2.20;;;15.30;99.90;;;;;;5041613;28;20048;-80
2023/10/05 09:23:04;;;;;;;8.48;2.35;;;15.30;99.90;;;;;;5023171;28;20033;-80
2023/10/05 09:25:38;;;;;;;8.88;1.95;;;15.40;99.90;;;;;;5026057;28;20422;-79
2023/10/05 09:28:14;;;;;;;5.15;1.95;;;15.40;99.90;;;;;;5027632;28;20666;-80
2023/10/05 09:30:47;;;;;;;11.57;2.65;;;15.50;99.90;;;;;;5043008;28;20067;-80
2023/10/05 09:33:18;;;;;;;9.50;2.00;;;15.60;99.90;;;;;;5025939;28;20045;-81
2023/10/05 09:35:47;;;;;;;8.38;2.20;;;15.60;99.90;;;;;;5027338;28;20028;-81
2023/10/05 09:38:23;;;;;;;7.85;1.92;;;15.70;97.60;;;;;;5032200;28;20048;-79
2023/10/05 09:40:53;;;;;;;7.70;2.17;;;15.70;96.20;;;;;;5034698;28;20168;-79
2023/10/05 09:43:21;;;;;;;7.65;1.90;;;15.70;95.80;;;;;;5046110;28;20045;-79
2023/10/05 09:45:54;;;;;;;7.85;2.05;;;15.50;99.90;;;;;;5031852;28;20110;-79
2023/10/05 09:48:21;;;;;;;10.07;2.17;;;15.40;99.90;;;;;;5031289;28;20476;-82
2023/10/05 09:50:49;;;;;;;8.13;2.10;;;15.30;99.90;;;;;;5048290;28;20056;-82
2023/10/05 09:53:20;;;;;;;6.53;1.95;;;15.20;99.90;;;;;;5030243;28;20045;-83
2023/10/05 09:55:50;;;;;;;8.20;2.80;;;15.10;99.90;;;;;;5027665;28;20041;-84
2023/10/05 09:58:18;;;;;;;9.05;2.40;;;15.00;99.90;;;;;;5040674;28;20052;-84
2023/10/05 10:03:10;;;;;;;13.02;2.10;;;15.00;99.90;;;;;;5041340;28;20106;-81
2023/10/05 10:05:43;;;;;;;10.98;2.83;;;14.90;99.90;;;;;;5030050;28;20124;-81
2023/10/05 10:08:20;;;;;;;6.68;2.78;;;14.90;99.90;;;;;;5038536;28;20041;-83
2023/10/05 10:11:01;;;;;;;4.88;2.25;;;14.90;99.90;;;;;;5037730;28;20045;-82
2023/10/05 10:13:37;;;;;;;5.60;1.85;;;14.80;99.90;;;;;;5029039;28;20041;-82
2023/10/05 10:16:15;;;;;;;7.13;1.58;;;14.80;99.90;;;;;;5043482;28;20043;-82
2023/10/05 10:18:44;;;;;;;9.40;2.13;;;14.70;99.90;;;;;;5024292;28;20511;-82
2023/10/05 10:21:32;;;;;;;4.38;1.85;;;14.70;99.90;;;;;;5025424;28;20618;-82
2023/10/05 10:24:18;;;;;;;8.30;3.00;;;14.60;99.90;;;;;;5034474;28;20071;-82
2023/10/05 10:26:56;;;;;;;9.82;1.90;;;14.80;99.90;;;;;;5041045;28;20476;-82
2023/10/05 10:29:53;;;;;;;4.78;2.63;;;14.80;99.90;;;;;;5055071;28;20049;-83
2023/10/05 10:32:30;;;;;;;4.70;1.60;;;15.10;99.90;;;;;;5060749;28;20049;-82
2023/10/05 10:35:05;;;;;;;6.18;1.77;;;15.30;99.90;;;;;;5024274;28;20047;-82
2023/10/05 10:37:44;;;;;;;5.13;2.35;;;15.50;99.90;;;;;;5030982;28;20044;-81
2023/10/05 10:42:53;;;;;;;10.45;3.22;;;16.10;99.90;;;;;;5038906;28;20037;-82
2023/10/05 10:45:29;;;;;;;13.65;2.90;;;16.30;99.90;;;;;;5048671;28;20403;-82
2023/10/05 10:47:56;;;;;;;17.48;3.78;;;16.40;99.90;;;;;;5028535;28;20040;-82
2023/10/05 10:50:30;;;;;;;14.98;3.45;;;16.50;99.90;;;;;;5028839;28;20802;-84
2023/10/05 10:52:58;;;;;;;9.45;2.65;;;16.50;99.90;;;;;;5028141;28;20546;-84
2023/10/05 10:55:32;;;;;;;11.05;3.15;;;16.50;99.90;;;;;;5037481;28;20041;-84
2023/10/05 10:58:04;;;;;;;6.57;2.15;;;16.60;99.90;;;;;;5056955;28;20129;-84
2023/10/05 11:03:15;;;;;;;12.43;2.97;;;16.70;99.90;;;;;;5056857;28;20068;-84
2023/10/05 11:05:52;;;;;;;7.93;2.53;;;16.70;99.90;;;;;;5027130;28;20136;-84
2023/10/05 11:08:21;;;;;;;15.13;3.17;;;17.00;99.90;;;;;;5016825;28;20049;-84
2023/10/05 11:11:00;;;;;;;6.65;2.20;;;17.20;99.90;;;;;;5045080;28;20131;-84
2023/10/05 11:13:30;;;;;;;4.55;1.65;;;17.10;99.90;;;;;;5037046;28;20110;-84
2023/10/05 11:16:00;;;;;;;7.57;2.05;;;16.80;99.90;;;;;;5027520;28;20049;-84
2023/10/05 11:18:31;;;;;;;8.40;2.42;;;16.70;99.90;;;;;;5034267;28;20186;-84
2023/10/05 11:21:23;;;;;;;9.07;2.60;;;16.60;99.90;;;;;;5045373;28;20055;-84
2023/10/05 11:23:57;;;;;;;6.75;2.08;;;16.70;99.90;;;;;;5025123;28;20078;-84
2023/10/05 11:26:57;;;;;;;12.20;2.70;;;16.80;99.90;;;;;;5026724;28;20114;-84
2023/10/05 11:29:42;;;;;;;5.65;2.00;;;16.80;99.90;;;;;;5040218;28;20140;-83
2023/10/05 11:32:15;;;;;;;10.00;2.17;;;17.00;99.90;;;;;;5027036;28;20033;-84
2023/10/05 11:34:43;;;;;;;7.43;2.63;;;17.20;99.90;;;;;;5039824;28;20047;-84
2023/10/05 11:37:16;;;;;;;6.88;2.20;;;17.40;99.90;;;;;;5036304;28;20049;-84
2023/10/05 11:39:46;;;;;;;7.25;2.03;;;17.70;99.90;;;;;;5059386;28;20131;-85
2023/10/05 11:42:12;;;;;;;8.38;1.65;;;17.70;99.90;;;;;;5026907;28;20138;-84
2023/10/05 11:44:44;;;;;;;8.40;3.10;;;17.80;99.90;;;;;;5027892;28;20083;-84
2023/10/05 11:47:23;;;;;;;7.07;1.88;;;17.70;99.90;;;;;;5023864;28;20188;-84
2023/10/05 11:49:49;;;;;;;5.88;1.77;;;17.80;99.90;;;;;;5041386;28;20107;-84
2023/10/05 11:52:23;;;;;;;5.22;1.80;;;18.10;99.90;;;;;;5041337;28;20568;-84
2023/10/05 11:54:49;;;;;;;7.88;2.30;;;17.90;99.90;;;;;;5035154;28;20045;-84
2023/10/05 11:57:16;;;;;;;6.22;1.73;;;17.60;99.90;;;;;;5044968;28;20515;-83
2023/10/05 11:59:42;;;;;;;6.50;1.88;;;17.30;99.90;;;;;;5026212;28;20041;-85
2023/10/05 12:02:08;;;;;;;8.13;1.70;;;17.10;99.90;;;;;;5022922;28;20044;-86
2023/10/05 12:04:39;;;;;;;5.60;1.40;;;16.90;99.90;;;;;;5027953;28;20067;-84
2023/10/05 12:07:06;;;;;;;6.38;1.70;;;16.70;99.90;;;;;;5034283;28;20065;-85
2023/10/05 12:09:32;;;;;;;9.75;2.58;;;16.60;99.90;;;;;;5027858;28;20041;-82
2023/10/05 12:12:03;;;;;;;4.22;1.50;;;16.40;99.90;;;;;;5024783;28;20048;-81
2023/10/05 12:14:29;;;;;;;8.27;2.22;;;16.40;99.90;;;;;;5026186;28;20041;-81
2023/10/05 12:16:57;;;;;;;10.75;2.25;;;16.70;99.90;;;;;;5041813;28;20097;-82
2023/10/05 12:19:29;;;;;;;10.48;2.20;;;16.80;99.90;;;;;;5027372;28;20037;-84
2023/10/05 12:21:56;;;;;;;6.30;1.70;;;16.60;99.90;;;;;;5057917;28;20036;-81
2023/10/05 12:24:22;;;;;;;8.20;2.03;;;16.50;99.90;;;;;;5027062;28;20045;-82
2023/10/05 12:26:50;;;;;;;8.05;2.30;;;16.30;99.90;;;;;;5029085;28;20408;-81
2023/10/05 12:29:17;;;;;;;6.47;1.70;;;16.20;99.90;;;;;;5026774;28;20049;-82
2023/10/05 12:31:47;;;;;;;7.35;2.53;;;16.10;99.90;;;;;;5033012;28;20044;-81
2023/10/05 12:34:16;;;;;;;10.27;2.10;;;16.00;99.90;;;;;;5011978;28;20052;-81
2023/10/05 12:36:49;;;;;;;6.82;2.00;;;15.90;99.90;;;;;;5038234;28;20116;-82
2023/10/05 12:39:27;;;;;;;7.50;2.13;;;16.00;99.90;;;;;;5044372;28;20056;-81
2023/10/05 12:41:54;;;;;;;10.65;2.13;;;15.90;99.90;;;;;;5037479;28;20037;-81
2023/10/05 12:44:21;;;;;;;7.93;2.22;;;15.80;99.90;;;;;;5028599;28;20426;-82
2023/10/05 12:46:47;;;;;;;9.38;2.67;;;15.80;99.90;;;;;;5027723;28;20052;-81
2023/10/05 12:49:16;;;;;;;4.70;1.98;;;15.80;99.90;;;;;;5046043;28;20057;-81
2023/10/05 12:51:44;;;;;;;8.07;1.88;;;15.70;99.90;;;;;;5023581;28;20123;-81
2023/10/05 12:54:18;;;;;;;7.65;2.50;;;15.70;99.90;;;;;;5023588;28;20037;-81
2023/10/05 12:56:49;;;;;;;7.38;2.45;;;15.70;99.90;;;;;;5042483;28;20099;-80
2023/10/05 12:59:15;;;;;;;10.45;2.20;;;15.70;99.90;;;;;;5046122;28;20060;-81
2023/10/05 13:01:41;;;;;;;7.35;2.72;;;15.70;99.90;;;;;;5027854;28;20048;-80
2023/10/05 13:04:12;;;;;;;6.18;3.10;;;15.90;99.90;;;;;;5036742;28;20038;-81
2023/10/05 13:06:39;;;;;;;20.45;4.20;;;16.20;99.90;;;;;;5060532;28;20033;-81
2023/10/05 13:09:11;;;;;;;13.63;3.38;;;16.40;99.90;;;;;;5034569;28;20113;-81
2023/10/05 13:11:39;;;;;;;9.30;3.10;;;16.50;99.90;;;;;;5043734;28;20044;-81
2023/10/05 13:14:14;;;;;;;13.48;3.88;;;16.50;99.90;;;;;;5030741;28;20072;-81
2023/10/05 13:16:54;;;;;;;10.57;2.60;;;16.60;99.90;;;;;;5028434;28;20033;-81
2023/10/05 13:19:20;;;;;;;10.48;3.17;;;16.60;99.90;;;;;;5041848;28;20048;-82
2023/10/05 13:21:46;;;;;;;9.43;3.38;;;16.60;99.90;;;;;;5023577;28;20048;-81
2023/10/05 13:24:12;;;;;;;12.80;2.63;;;16.60;99.90;;;;;;5027501;28;20561;-81
2023/10/05 13:26:45;;;;;;;9.23;2.88;;;16.60;99.90;;;;;;5063253;28;20456;-81
2023/10/05 13:29:12;;;;;;;7.05;2.55;;;16.70;99.90;;;;;;5047765;28;20124;-80
2023/10/05 13:31:41;;;;;;;7.75;2.45;;;17.00;99.90;;;;;;5048547;28;20433;-81
2023/10/05 13:34:16;;;;;;;7.07;2.40;;;17.00;99.90;;;;;;5032166;28;20045;-81